createdAt,value
2018-11-03T00:02:27.940Z,8.86
2018-11-03T00:04:57.143Z,8.93
2018-11-03T00:07:26.447Z,8.79
2018-11-03T00:09:55.535Z,8.84
2018-11-03T00:12:24.736Z,8.78
2018-11-03T00:14:53.948Z,8.77
2018-11-03T00:17:23.223Z,8.76
2018-11-03T00:19:52.388Z,8.72
2018-11-03T00:22:21.620Z,8.72
2018-11-03T00:24:50.910Z,8.68
2018-11-03T00:27:20.222Z,8.70
2018-11-03T00:29:49.440Z,8.71
2018-11-03T00:32:18.643Z,8.73
2018-11-03T00:34:47.743Z,8.71
2018-11-03T00:37:16.957Z,8.75
2018-11-03T00:39:46.550Z,8.79
2018-11-03T00:42:15.733Z,8.75
2018-11-03T00:44:44.941Z,8.73
2018-11-03T00:47:14.105Z,8.67
2018-11-03T00:49:43.369Z,8.68
2018-11-03T00:52:12.442Z,8.61
2018-11-03T00:54:41.596Z,8.59
2018-11-03T00:57:10.773Z,8.65
2018-11-03T00:59:39.865Z,8.58
2018-11-03T01:02:09.013Z,8.61
2018-11-03T01:04:38.121Z,8.59
2018-11-03T01:07:07.621Z,8.58
2018-11-03T01:09:36.748Z,8.59
2018-11-03T01:12:05.990Z,8.64
2018-11-03T01:14:35.225Z,8.63
2018-11-03T01:17:04.308Z,8.63
2018-11-03T01:19:33.580Z,8.65
2018-11-03T01:22:02.664Z,8.62
2018-11-03T01:24:31.892Z,8.64
2018-11-03T01:27:01.120Z,8.62
2018-11-03T01:29:30.313Z,8.62
2018-11-03T01:31:59.472Z,8.57
2018-11-03T01:34:28.601Z,8.57
2018-11-03T01:36:57.696Z,8.59
2018-11-03T01:39:26.782Z,8.60
2018-11-03T01:41:55.904Z,8.61
2018-11-03T01:44:25.042Z,8.56
2018-11-03T01:46:54.264Z,8.58
2018-11-03T01:49:23.439Z,8.52
2018-11-03T01:51:52.558Z,8.62
2018-11-03T01:54:21.748Z,8.52
2018-11-03T01:56:50.847Z,8.56
2018-11-03T01:59:20.054Z,8.69
2018-11-03T02:01:49.154Z,8.60
2018-11-03T02:04:18.364Z,8.57
2018-11-03T02:06:47.612Z,8.57
2018-11-03T02:09:16.733Z,8.57
2018-11-03T02:11:45.876Z,8.59
2018-11-03T02:14:15.011Z,8.61
2018-11-03T02:16:44.231Z,8.59
2018-11-03T02:19:13.303Z,8.56
2018-11-03T02:21:42.476Z,8.59
2018-11-03T02:24:11.725Z,8.67
2018-11-03T02:26:40.848Z,8.68
2018-11-03T02:29:10.198Z,8.63
2018-11-03T02:31:39.374Z,8.54
2018-11-03T02:34:08.453Z,8.54
2018-11-03T02:36:37.604Z,8.57
2018-11-03T02:39:07.908Z,8.54
2018-11-03T02:41:37.076Z,8.59
2018-11-03T02:44:06.513Z,8.60
2018-11-03T02:46:35.625Z,8.59
2018-11-03T02:49:05.351Z,8.64
2018-11-03T02:51:34.714Z,8.68
2018-11-03T02:54:03.974Z,8.66
2018-11-03T02:56:33.053Z,8.63
2018-11-03T02:59:02.208Z,8.69
2018-11-03T03:01:31.301Z,8.64
2018-11-03T03:04:00.484Z,8.57
2018-11-03T03:06:29.595Z,8.56
2018-11-03T03:08:58.803Z,8.52
2018-11-03T03:11:27.904Z,8.57
2018-11-03T03:13:57.188Z,8.58
2018-11-03T03:16:26.309Z,8.61
2018-11-03T03:18:55.519Z,8.60
2018-11-03T03:21:24.839Z,8.61
2018-11-03T03:23:54.082Z,8.61
2018-11-03T03:26:23.172Z,8.57
2018-11-03T03:28:52.368Z,8.59
2018-11-03T03:31:21.571Z,8.54
2018-11-03T03:33:50.688Z,8.50
2018-11-03T03:36:20.483Z,8.59
2018-11-03T03:38:49.628Z,8.63
2018-11-03T03:41:18.719Z,8.60
2018-11-03T03:43:47.905Z,8.61
2018-11-03T03:46:16.999Z,8.55
2018-11-03T03:48:46.183Z,8.57
2018-11-03T03:51:15.428Z,8.59
2018-11-03T03:53:44.537Z,8.49
2018-11-03T03:56:13.856Z,8.46
2018-11-03T03:58:43.076Z,8.48
2018-11-03T04:01:12.161Z,8.54
2018-11-03T04:03:41.375Z,8.61
2018-11-03T04:06:10.445Z,8.65
2018-11-03T04:08:39.545Z,8.64
2018-11-03T04:11:08.625Z,8.63
2018-11-03T04:13:38.861Z,8.50
2018-11-03T04:16:07.914Z,8.53
2018-11-03T04:18:37.016Z,8.53
2018-11-03T04:21:06.253Z,8.65
2018-11-03T04:23:35.341Z,8.69
2018-11-03T04:26:04.752Z,8.69
2018-11-03T04:28:34.020Z,8.64
2018-11-03T04:31:03.525Z,8.60
2018-11-03T04:33:32.761Z,8.67
2018-11-03T04:36:01.904Z,8.66
2018-11-03T04:38:30.997Z,8.66
2018-11-03T04:41:00.237Z,8.68
2018-11-03T04:43:29.675Z,8.66
2018-11-03T04:45:58.741Z,8.65
2018-11-03T04:48:27.863Z,8.68
2018-11-03T04:50:56.957Z,8.73
2018-11-03T04:53:26.111Z,8.73
2018-11-03T04:55:55.352Z,8.74
2018-11-03T04:58:24.532Z,8.71
2018-11-03T05:00:53.715Z,8.74
2018-11-03T05:03:22.933Z,8.71
2018-11-03T05:05:52.100Z,8.67
2018-11-03T05:08:21.248Z,8.71
2018-11-03T05:10:50.348Z,8.70
2018-11-03T05:13:19.536Z,8.69
2018-11-03T05:15:48.640Z,8.72
2018-11-03T05:18:17.723Z,8.63
2018-11-03T05:20:46.869Z,8.68
2018-11-03T05:23:16.008Z,8.68
2018-11-03T05:25:45.089Z,8.72
2018-11-03T05:28:14.309Z,8.74
2018-11-03T05:30:43.478Z,8.72
2018-11-03T05:33:12.616Z,8.68
2018-11-03T05:35:41.687Z,8.72
2018-11-03T05:38:10.838Z,8.73
2018-11-03T05:40:40.135Z,8.71
2018-11-03T05:43:09.305Z,8.73
2018-11-03T05:45:38.460Z,8.71
2018-11-03T05:48:07.652Z,8.73
2018-11-03T05:50:36.825Z,8.76
2018-11-03T05:53:06.025Z,8.74
2018-11-03T05:55:35.252Z,8.73
2018-11-03T05:58:04.388Z,8.70
2018-11-03T06:00:33.544Z,8.71
2018-11-03T06:03:02.633Z,8.70
2018-11-03T06:05:31.810Z,8.70
2018-11-03T06:08:00.927Z,8.71
2018-11-03T06:10:30.034Z,8.72
2018-11-03T06:12:59.265Z,8.73
2018-11-03T06:15:28.349Z,8.71
2018-11-03T06:17:57.525Z,8.73
2018-11-03T06:20:26.901Z,8.74
2018-11-03T06:22:56.259Z,8.75
2018-11-03T06:25:25.344Z,8.75
2018-11-03T06:27:54.538Z,8.72
2018-11-03T06:30:23.604Z,8.76
2018-11-03T06:32:52.847Z,8.77
2018-11-03T06:35:22.193Z,8.79
2018-11-03T06:37:51.228Z,8.77
2018-11-03T06:40:20.317Z,8.79
2018-11-03T06:42:49.528Z,8.81
2018-11-03T06:45:18.704Z,8.82
2018-11-03T06:47:47.896Z,8.82
2018-11-03T06:50:17.186Z,8.83
2018-11-03T06:52:46.403Z,8.82
2018-11-03T06:55:15.592Z,8.84
2018-11-03T06:57:44.699Z,8.84
2018-11-03T07:00:13.890Z,8.83
2018-11-03T07:02:43.078Z,8.86
2018-11-03T07:05:12.375Z,8.94
2018-11-03T07:07:41.491Z,8.93
2018-11-03T07:10:11.444Z,8.95
2018-11-03T07:12:41.055Z,8.94
2018-11-03T07:15:09.999Z,9.04
2018-11-03T07:17:39.179Z,9.04
2018-11-03T07:20:10.090Z,9.06
2018-11-03T07:22:39.297Z,9.11
2018-11-03T07:25:08.734Z,9.14
2018-11-03T07:27:37.857Z,9.08
2018-11-03T07:30:09.123Z,9.16
2018-11-03T07:32:38.297Z,9.18
2018-11-03T07:35:07.748Z,9.24
2018-11-03T07:37:37.085Z,9.22
2018-11-03T07:40:07.292Z,9.21
2018-11-03T07:42:36.500Z,9.16
2018-11-03T07:45:06.642Z,9.22
2018-11-03T07:47:36.145Z,9.25
2018-11-03T07:50:07.511Z,9.28
2018-11-03T07:52:36.684Z,9.31
2018-11-03T07:55:07.001Z,9.33
2018-11-03T07:57:36.465Z,9.33
2018-11-03T08:00:07.768Z,9.35
2018-11-03T08:02:36.905Z,9.36
2018-11-03T08:05:06.992Z,9.40
2018-11-03T08:07:36.140Z,9.42
2018-11-03T08:10:06.188Z,9.39
2018-11-03T08:12:35.282Z,9.48
2018-11-03T08:15:04.555Z,9.50
2018-11-03T08:17:34.057Z,9.52
2018-11-03T08:20:03.288Z,9.57
2018-11-03T08:22:32.469Z,9.61
2018-11-03T08:25:01.664Z,9.65
2018-11-03T08:27:30.773Z,9.71
2018-11-03T08:29:59.855Z,9.82
2018-11-03T08:32:28.987Z,9.75
2018-11-03T08:34:58.371Z,9.75
2018-11-03T08:37:27.506Z,9.75
2018-11-03T08:39:56.571Z,9.86
2018-11-03T08:42:25.674Z,9.88
2018-11-03T08:44:54.743Z,10.01
2018-11-03T08:47:23.958Z,10.10
2018-11-03T08:49:53.051Z,10.10
2018-11-03T08:52:22.141Z,10.22
2018-11-03T08:54:51.440Z,10.29
2018-11-03T08:57:20.709Z,10.25
2018-11-03T08:59:50.394Z,10.36
2018-11-03T09:02:19.437Z,10.44
2018-11-03T09:04:48.562Z,10.52
2018-11-03T09:07:17.659Z,10.51
2018-11-03T09:09:47.437Z,10.53
2018-11-03T09:12:16.592Z,10.59
2018-11-03T09:14:45.904Z,10.59
2018-11-03T09:17:15.109Z,10.54
2018-11-03T09:19:44.224Z,10.75
2018-11-03T09:22:13.422Z,10.84
2018-11-03T09:24:42.617Z,10.94
2018-11-03T09:27:11.812Z,11.02
2018-11-03T09:29:41.026Z,11.00
2018-11-03T09:32:10.170Z,11.01
2018-11-03T09:34:39.364Z,11.03
2018-11-03T09:37:09.127Z,11.05
2018-11-03T09:39:38.285Z,11.19
2018-11-03T09:42:07.420Z,11.51
2018-11-03T09:44:36.588Z,11.30
2018-11-03T09:47:05.926Z,11.32
2018-11-03T09:49:35.112Z,11.38
2018-11-03T09:52:04.814Z,11.44
2018-11-03T09:54:33.929Z,11.42
2018-11-03T09:57:03.046Z,11.59
2018-11-03T09:59:32.192Z,11.86
2018-11-03T10:02:01.335Z,11.84
2018-11-03T10:04:30.590Z,11.71
2018-11-03T10:06:59.707Z,11.60
2018-11-03T10:09:28.872Z,11.63
2018-11-03T10:11:57.975Z,11.80
2018-11-03T10:14:27.111Z,11.85
2018-11-03T10:16:56.272Z,11.84
2018-11-03T10:19:25.497Z,11.82
2018-11-03T10:21:55.386Z,11.71
2018-11-03T10:24:24.527Z,11.66
2018-11-03T10:26:53.782Z,11.67
2018-11-03T10:29:22.924Z,11.61
2018-11-03T10:31:52.168Z,11.64
2018-11-03T10:34:21.310Z,11.59
2018-11-03T10:36:50.428Z,11.57
2018-11-03T10:39:19.556Z,11.71
2018-11-03T10:41:48.657Z,11.96
2018-11-03T10:44:17.849Z,11.97
2018-11-03T10:46:46.992Z,12.07
2018-11-03T10:49:16.478Z,11.95
2018-11-03T10:51:45.849Z,12.34
2018-11-03T10:54:14.957Z,12.56
2018-11-03T10:56:44.062Z,12.44
2018-11-03T10:59:13.291Z,12.44
2018-11-03T11:01:47.681Z,12.42
2018-11-03T11:04:22.282Z,12.54
2018-11-03T11:06:56.752Z,12.75
2018-11-03T11:09:31.402Z,12.67
2018-11-03T11:12:05.851Z,12.85
2018-11-03T11:14:34.998Z,12.85
2018-11-03T11:17:04.241Z,12.97
2018-11-03T11:19:33.360Z,12.97
2018-11-03T11:22:02.588Z,12.91
2018-11-03T11:24:31.735Z,13.06
2018-11-03T11:27:00.851Z,12.85
2018-11-03T11:29:29.952Z,12.77
2018-11-03T11:31:59.066Z,12.75
2018-11-03T11:34:28.187Z,12.69
2018-11-03T11:36:57.303Z,12.55
2018-11-03T11:39:26.424Z,12.59
2018-11-03T11:41:55.556Z,12.48
2018-11-03T11:44:24.699Z,12.28
2018-11-03T11:46:53.867Z,12.07
2018-11-03T11:49:22.991Z,12.02
2018-11-03T11:51:52.527Z,11.88
2018-11-03T11:54:21.729Z,11.79
2018-11-03T11:56:51.301Z,11.81
2018-11-03T11:59:20.532Z,11.91
2018-11-03T12:01:49.626Z,11.79
2018-11-03T12:04:18.905Z,11.76
2018-11-03T12:06:48.031Z,11.79
2018-11-03T12:09:17.200Z,11.84
2018-11-03T12:11:46.344Z,11.91
2018-11-03T12:14:15.525Z,11.98
2018-11-03T12:16:44.697Z,11.86
2018-11-03T12:19:14.023Z,11.85
2018-11-03T12:21:43.153Z,11.89
2018-11-03T12:24:12.296Z,11.80
2018-11-03T12:26:41.701Z,12.03
2018-11-03T12:29:10.803Z,12.08
2018-11-03T12:31:40.025Z,12.10
2018-11-03T12:34:09.165Z,12.06
2018-11-03T12:36:38.349Z,12.00
2018-11-03T12:39:08.468Z,11.96
2018-11-03T12:41:37.665Z,12.06
2018-11-03T12:44:06.895Z,12.22
2018-11-03T12:46:36.121Z,12.23
2018-11-03T12:49:05.409Z,12.23
2018-11-03T12:51:34.815Z,12.16
2018-11-03T12:54:03.939Z,12.29
2018-11-03T12:56:33.065Z,12.39
2018-11-03T12:59:02.214Z,12.49
2018-11-03T13:01:31.369Z,12.30
2018-11-03T13:04:00.790Z,12.21
2018-11-03T13:06:29.868Z,12.17
2018-11-03T13:08:59.091Z,12.20
2018-11-03T13:11:28.175Z,11.97
2018-11-03T13:13:57.632Z,11.90
2018-11-03T13:16:26.762Z,11.94
2018-11-03T13:18:55.986Z,11.84
2018-11-03T13:21:25.180Z,11.79
2018-11-03T13:23:54.396Z,11.92
2018-11-03T13:26:23.628Z,11.87
2018-11-03T13:28:53.362Z,11.84
2018-11-03T13:31:22.493Z,11.85
2018-11-03T13:33:51.603Z,11.79
2018-11-03T13:36:20.734Z,11.77
2018-11-03T13:38:49.976Z,11.86
2018-11-03T13:41:19.166Z,11.94
2018-11-03T13:43:48.272Z,12.03
2018-11-03T13:46:17.426Z,12.01
2018-11-03T13:48:46.579Z,12.00
2018-11-03T13:51:15.688Z,12.07
2018-11-03T13:53:44.845Z,11.90
2018-11-03T13:56:13.981Z,12.01
2018-11-03T13:58:43.345Z,11.86
2018-11-03T14:01:12.433Z,11.99
2018-11-03T14:03:41.633Z,11.89
2018-11-03T14:06:10.818Z,11.96
2018-11-03T14:08:40.023Z,12.01
2018-11-03T14:11:09.271Z,12.05
2018-11-03T14:13:38.368Z,12.09
2018-11-03T14:16:07.605Z,12.07
2018-11-03T14:18:36.741Z,12.09
2018-11-03T14:21:06.101Z,12.03
2018-11-03T14:23:35.371Z,12.12
2018-11-03T14:26:04.396Z,12.12
2018-11-03T14:28:33.592Z,12.18
2018-11-03T14:31:02.705Z,12.00
2018-11-03T14:33:31.901Z,11.92
2018-11-03T14:36:01.132Z,11.94
2018-11-03T14:38:30.378Z,11.93
2018-11-03T14:40:59.481Z,11.97
2018-11-03T14:43:28.648Z,12.11
2018-11-03T14:45:57.784Z,12.03
2018-11-03T14:48:27.045Z,12.05
2018-11-03T14:50:56.177Z,12.05
2018-11-03T14:53:25.396Z,12.01
2018-11-03T14:55:54.556Z,11.94
2018-11-03T14:58:23.693Z,11.86
2018-11-03T15:00:52.796Z,11.71
2018-11-03T15:03:21.999Z,11.71
2018-11-03T15:05:51.127Z,11.72
2018-11-03T15:08:20.439Z,11.77
2018-11-03T15:10:49.689Z,11.77
2018-11-03T15:13:18.879Z,11.74
2018-11-03T15:15:48.063Z,11.73
2018-11-03T15:18:17.182Z,11.65
2018-11-03T15:20:46.327Z,11.59
2018-11-03T15:23:15.421Z,11.67
2018-11-03T15:25:44.656Z,11.58
2018-11-03T15:28:13.809Z,11.56
2018-11-03T15:30:43.046Z,11.56
2018-11-03T15:33:12.262Z,11.54
2018-11-03T15:35:41.452Z,11.58
2018-11-03T15:38:10.550Z,11.51
2018-11-03T15:40:39.706Z,11.45
2018-11-03T15:43:08.880Z,11.45
2018-11-03T15:45:38.068Z,11.58
2018-11-03T15:48:07.181Z,11.53
2018-11-03T15:50:40.481Z,11.33
2018-11-03T15:53:09.687Z,11.39
2018-11-03T15:55:38.801Z,11.24
2018-11-03T15:58:08.005Z,11.23
2018-11-03T16:00:37.203Z,11.25
2018-11-03T16:03:06.376Z,11.26
2018-11-03T16:05:35.497Z,11.36
2018-11-03T16:08:04.665Z,11.39
2018-11-03T16:10:33.852Z,11.29
2018-11-03T16:13:03.030Z,11.11
2018-11-03T16:15:32.256Z,11.06
2018-11-03T16:18:01.390Z,11.11
2018-11-03T16:20:30.574Z,11.17
2018-11-03T16:23:00.725Z,11.10
2018-11-03T16:25:29.895Z,11.10
2018-11-03T16:27:59.050Z,11.09
2018-11-03T16:30:28.584Z,11.05
2018-11-03T16:32:57.873Z,11.13
2018-11-03T16:35:27.010Z,11.03
2018-11-03T16:37:56.201Z,11.00
2018-11-03T16:40:25.390Z,11.05
2018-11-03T16:42:54.612Z,11.06
2018-11-03T16:45:23.797Z,11.03
2018-11-03T16:47:52.981Z,10.97
2018-11-03T16:50:22.100Z,11.02
2018-11-03T16:52:51.994Z,11.02
2018-11-03T16:55:21.227Z,11.07
2018-11-03T16:57:50.396Z,11.02
2018-11-03T17:00:19.664Z,10.89
2018-11-03T17:02:48.758Z,10.96
2018-11-03T17:05:17.875Z,10.88
2018-11-03T17:07:47.082Z,10.82
2018-11-03T17:10:16.570Z,10.90
2018-11-03T17:12:47.163Z,10.93
2018-11-03T17:15:16.726Z,10.99
2018-11-03T17:17:45.989Z,11.03
2018-11-03T17:20:15.127Z,11.02
2018-11-03T17:22:44.320Z,10.94
2018-11-03T17:25:13.772Z,11.00
2018-11-03T17:27:42.929Z,10.95
2018-11-03T17:30:14.382Z,10.91
2018-11-03T17:32:44.105Z,10.94
2018-11-03T17:35:13.634Z,10.90
2018-11-03T17:37:43.260Z,10.90
2018-11-03T17:40:12.868Z,10.83
2018-11-03T17:42:41.963Z,10.87
2018-11-03T17:45:11.906Z,10.81
2018-11-03T17:47:41.072Z,10.83
2018-11-03T17:50:12.036Z,10.76
2018-11-03T17:52:41.379Z,10.80
2018-11-03T17:55:10.996Z,10.86
2018-11-03T17:57:40.298Z,10.82
2018-11-03T18:00:12.051Z,10.71
2018-11-03T18:02:41.206Z,10.80
2018-11-03T18:05:10.406Z,10.90
2018-11-03T18:07:39.578Z,10.87
2018-11-03T18:10:09.990Z,10.77
2018-11-03T18:12:39.096Z,10.89
2018-11-03T18:15:08.608Z,10.86
2018-11-03T18:17:37.729Z,10.73
2018-11-03T18:20:08.007Z,10.83
2018-11-03T18:22:37.313Z,10.72
2018-11-03T18:25:07.118Z,10.82
2018-11-03T18:27:36.268Z,10.81
2018-11-03T18:30:06.472Z,10.95
2018-11-03T18:32:35.572Z,10.80
2018-11-03T18:35:04.793Z,10.69
2018-11-03T18:37:34.000Z,10.66
2018-11-03T18:40:03.141Z,10.67
2018-11-03T18:42:32.365Z,10.66
2018-11-03T18:45:01.531Z,10.57
2018-11-03T18:47:30.629Z,10.54
2018-11-03T18:49:59.774Z,10.54
2018-11-03T18:52:28.905Z,10.61
2018-11-03T18:54:58.017Z,10.57
2018-11-03T18:57:27.137Z,10.62
2018-11-03T18:59:56.324Z,10.60
2018-11-03T19:02:25.725Z,10.57
2018-11-03T19:04:54.905Z,10.58
2018-11-03T19:07:24.408Z,10.53
2018-11-03T19:09:53.590Z,10.53
2018-11-03T19:12:22.756Z,10.59
2018-11-03T19:14:51.930Z,10.60
2018-11-03T19:17:21.207Z,10.57
2018-11-03T19:19:50.270Z,10.57
2018-11-03T19:22:19.494Z,10.59
2018-11-03T19:24:48.615Z,10.58
2018-11-03T19:27:18.501Z,10.60
2018-11-03T19:29:47.762Z,10.56
2018-11-03T19:32:16.835Z,10.60
2018-11-03T19:34:45.997Z,10.67
2018-11-03T19:37:15.376Z,10.73
2018-11-03T19:39:44.750Z,10.67
2018-11-03T19:42:13.898Z,10.63
2018-11-03T19:44:42.969Z,10.58
2018-11-03T19:47:12.142Z,10.51
2018-11-03T19:49:41.307Z,10.51
2018-11-03T19:52:10.425Z,10.51
2018-11-03T19:54:39.532Z,10.47
2018-11-03T19:57:08.617Z,10.46
2018-11-03T19:59:37.765Z,10.40
2018-11-03T20:02:06.900Z,10.34
2018-11-03T20:04:36.368Z,10.44
2018-11-03T20:07:05.789Z,10.46
2018-11-03T20:09:34.901Z,10.46
2018-11-03T20:12:04.029Z,10.48
2018-11-03T20:14:33.109Z,10.52
2018-11-03T20:17:02.205Z,10.46
2018-11-03T20:19:31.356Z,10.39
2018-11-03T20:22:00.477Z,10.34
2018-11-03T20:24:29.639Z,10.37
2018-11-03T20:26:58.814Z,10.37
2018-11-03T20:29:27.936Z,10.41
2018-11-03T20:31:57.123Z,10.41
2018-11-03T20:34:26.250Z,10.45
2018-11-03T20:36:55.344Z,10.42
2018-11-03T20:39:24.540Z,10.42
2018-11-03T20:41:53.785Z,10.43
2018-11-03T20:44:22.952Z,10.38
2018-11-03T20:46:52.210Z,10.40
2018-11-03T20:49:21.288Z,10.35
2018-11-03T20:51:50.506Z,10.36
2018-11-03T20:54:19.603Z,10.48
2018-11-03T20:56:48.860Z,10.49
2018-11-03T20:59:17.952Z,10.45
2018-11-03T21:01:47.132Z,10.49
2018-11-03T21:04:16.215Z,10.36
2018-11-03T21:09:24.969Z,10.32
2018-11-03T21:11:54.120Z,10.43
2018-11-03T21:14:23.202Z,10.38
2018-11-03T21:16:52.395Z,10.39
2018-11-03T21:19:21.496Z,10.48
2018-11-03T21:21:50.628Z,10.45
2018-11-03T21:24:19.972Z,10.43
2018-11-03T21:26:49.007Z,10.45
2018-11-03T21:29:18.082Z,10.40
2018-11-03T21:31:47.225Z,10.38
2018-11-03T21:34:16.266Z,10.31
2018-11-03T21:36:45.352Z,10.29
2018-11-03T21:39:14.492Z,10.37
2018-11-03T21:41:43.708Z,10.32
2018-11-03T21:44:12.843Z,10.28
2018-11-03T21:46:42.067Z,10.30
2018-11-03T21:49:11.081Z,10.30
2018-11-03T21:51:40.272Z,10.37
2018-11-03T21:54:09.453Z,10.37
2018-11-03T21:56:38.573Z,10.33
2018-11-03T21:59:08.178Z,10.27
2018-11-03T22:01:37.365Z,10.33
2018-11-03T22:04:06.560Z,10.23
2018-11-03T22:06:35.763Z,10.25
2018-11-03T22:09:07.828Z,10.31
2018-11-03T22:11:37.100Z,10.32
2018-11-03T22:14:06.584Z,10.30
2018-11-03T22:16:35.896Z,10.28
2018-11-03T22:19:05.327Z,10.29
2018-11-03T22:21:34.551Z,10.31
2018-11-03T22:24:03.626Z,10.30
2018-11-03T22:26:33.119Z,10.26
2018-11-03T22:29:02.229Z,10.25
2018-11-03T22:31:31.417Z,10.28
2018-11-03T22:34:00.507Z,10.26
2018-11-03T22:36:29.622Z,10.19
2018-11-03T22:38:59.455Z,10.24
2018-11-03T22:41:28.546Z,10.30
2018-11-03T22:43:57.707Z,10.26
2018-11-03T22:46:26.836Z,10.23
2018-11-03T22:48:56.055Z,10.14
2018-11-03T22:51:25.248Z,10.17
2018-11-03T22:53:54.361Z,10.19
2018-11-03T22:56:23.505Z,10.14
2018-11-03T22:58:52.610Z,10.13
2018-11-03T23:01:21.713Z,10.15
2018-11-03T23:03:50.794Z,10.18
2018-11-03T23:06:19.896Z,10.18
2018-11-03T23:08:49.080Z,10.15
2018-11-03T23:11:18.179Z,10.16
2018-11-03T23:13:47.305Z,10.18
2018-11-03T23:16:16.368Z,10.20
2018-11-03T23:18:45.472Z,10.23
2018-11-03T23:21:14.612Z,10.21
2018-11-03T23:23:44.008Z,10.13
2018-11-03T23:26:13.120Z,10.14
2018-11-03T23:28:42.256Z,10.15
2018-11-03T23:31:11.376Z,10.19
2018-11-03T23:33:40.470Z,10.16
2018-11-03T23:36:09.662Z,10.08
2018-11-03T23:38:38.770Z,10.17
2018-11-03T23:41:08.038Z,10.16
2018-11-03T23:43:37.138Z,10.26
2018-11-03T23:46:06.467Z,10.23
2018-11-03T23:48:35.689Z,10.15
2018-11-03T23:51:04.836Z,10.14
2018-11-03T23:53:34.058Z,10.09
2018-11-03T23:56:03.148Z,10.14
2018-11-03T23:58:32.235Z,10.08
